Cosco Tengfei — HPMO — position and weather

sailwx.info

Track history (hours):
 
Tides and Currents Weather Stations Pressure Air Temp Water Temp Dewpoint Dewpoint Depression Visibility Wind Speed Wind Dir Waves Ship Positions

Cosco Tengfei

Last reported at 2016-Jun-30 20:32 UTC. Time now 2016-Jun-30 21:22 UTC.
Position N 45°39' W 122°45'.

Length 183 m; draft 8.5 m.

Type: Cargo ship. MMSI: 355518000.

Date/timePositionNaut miles runAvg speedWind from/ knotsBaromVisibWave heightAir tempDewpointWater temp
2016-Jun-30 20:32N 45°39' W 122°45'0 0.0
2016-Jun-30 19:29N 45°39' W 122°45'0 0.0
2016-Jun-30 18:32N 45°39' W 122°45'0 0.0
2016-Jun-30 17:32N 45°39' W 122°45'0 0.0
2016-Jun-30 16:32N 45°39' W 122°45'0 0.0
2016-Jun-30 15:29N 45°39' W 122°45'0 0.0
2016-Jun-30 14:32N 45°39' W 122°45'0 0.0
2016-Jun-30 13:32N 45°39' W 122°45'0 0.0
2016-Jun-30 12:29N 45°39' W 122°45'0 0.0
2016-Jun-30 11:29N 45°39' W 122°45'0 0.0
2016-Jun-30 10:32N 45°39' W 122°45'0 0.0
2016-Jun-30 09:32N 45°39' W 122°45'0 0.0
2016-Jun-30 08:32N 45°39' W 122°45'0 0.0
2016-Jun-30 07:29N 45°39' W 122°45'7 7.2
2016-Jun-30 06:34N 45°45' W 122°46'1514.6
2016-Jun-30 05:34N 45°60' W 122°51'1312.6
2016-Jun-30 04:34N 46°09' W 123°03'1414.4
2016-Jun-30 03:34N 46°09' W 123°24'1312.7
2016-Jun-30 02:33N 46°15' W 123°40'1312.8
2016-Jun-30 01:33N 46°13' W 123°58'1716.7
2016-Jun-30 00:34N 46°13' W 124°22'1919.0
2016-Jun-29 23:34N 46°27' W 124°41'1919.1
2016-Jun-29 22:34N 46°45' W 124°51'1919.3
2016-Jun-29 21:33N 47°03' W 125°00'1919.2
2016-Jun-29 20:34N 47°21' W 125°09'1919.1
2016-Jun-29 19:33N 47°39' W 125°19'1919.1
2016-Jun-29 18:33N 47°57' W 125°29'1817.8
2016-Jun-29 17:33N 48°14' W 125°17'1818.2
2016-Jun-29 16:33N 48°29' W 125°02'1717.3
2016-Jun-29 15:33N 48°29' W 124°37'1918.7
2016-Jun-29 14:34N 48°22' W 124°11'1919.4
2016-Jun-29 13:33N 48°16' W 123°42'1515.6
2016-Jun-29 12:33N 48°23' W 123°22'1312.8
2016-Jun-29 11:34N 48°35' W 123°13'1716.5
2016-Jun-29 10:33N 48°49' W 123°01'1919.1
2016-Jun-29 09:33N 49°02' W 123°22'9 9.1
2016-Jun-29 08:34N 49°07' W 123°09'4 3.5
2016-Jun-29 07:32N 49°08' W 123°04'0 0.0
2016-Jun-29 06:32N 49°08' W 123°04'0 0.0
2016-Jun-29 05:32N 49°08' W 123°04'0 0.0
2016-Jun-29 04:32N 49°08' W 123°04'0 0.0
2016-Jun-29 03:32N 49°08' W 123°04'0 0.0
2016-Jun-29 02:32N 49°08' W 123°04'0 0.0
2016-Jun-29 01:32N 49°08' W 123°04'0 0.0
2016-Jun-29 00:32N 49°08' W 123°04'0 0.0
2016-Jun-28 23:32N 49°08' W 123°04'0 0.0
2016-Jun-28 22:32N 49°08' W 123°04'0 0.0
2016-Jun-28 21:32N 49°08' W 123°04'0 0.0
2016-Jun-28 20:32N 49°08' W 123°04'0 0.0
2016-Jun-28 19:32N 49°08' W 123°04'4 3.8
2016-Jun-28 18:34N 49°09' W 122°59'3 3.0
2016-Jun-28 17:33N 49°11' W 122°55'0 0.0
2016-Jun-28 16:33N 49°11' W 122°55'0 0.0
2016-Jun-28 15:33N 49°11' W 122°55'0 0.0
2016-Jun-28 14:33N 49°11' W 122°55'0 0.0
2016-Jun-28 13:33N 49°11' W 122°55'0 0.0
2016-Jun-28 12:33N 49°11' W 122°55'0 0.0
2016-Jun-28 11:33N 49°11' W 122°55'0 0.0
2016-Jun-28 10:33N 49°11' W 122°55'0 0.0
2016-Jun-28 09:33N 49°11' W 122°55'0 0.0
2016-Jun-28 08:33N 49°11' W 122°55'4 3.5
2016-Jun-28 07:33N 49°09' W 123°00'1111.4
2016-Jun-28 06:33N 49°07' W 123°17'2311.5
2016-Jun-28 04:34N 48°46' W 123°03'1514.9
2016-Jun-28 03:34N 48°32' W 123°12'1414.0
2016-Jun-28 02:33N 48°21' W 123°24'9 8.9
2016-Jun-28 01:31N 48°13' W 123°32'1414.3
2016-Jun-28 00:32N 48°14' W 123°54'1515.2
2016-Jun-27 23:33N 48°19' W 124°14'1514.7
2016-Jun-27 22:33N 48°26' W 124°34'1414.0
2016-Jun-27 21:33N 48°29' W 124°55'1515.0
2016-Jun-27 20:33N 48°28' W 125°17'1515.2
2016-Jun-27 19:33N 48°29' W 125°40'1615.6
2016-Jun-27 18:33N 48°28' W 126°04'1515.4
2016-Jun-27 17:33N 48°27' W 126°27'10 9.7
2016-Jun-27 16:33N 48°28' W 126°42'2 2.2
2016-Jun-27 15:32N 48°28' W 126°45'1210.5
2016-Jun-27 14:23N 48°28' W 127°03'1214.8
2016-Jun-27 13:33N 48°29' W 127°21'3014.9
2016-Jun-27 11:31N 48°28' W 128°07'3115.5
2016-Jun-27 09:33N 48°29' W 128°53'1515.3
2016-Jun-27 08:33N 48°29' W 129°16'2215.0
2016-Jun-27 07:05N 48°29' W 129°49'  
Track history (hours):
 
Tides and Currents Weather Stations Pressure Air Temp Water Temp Dewpoint Dewpoint Depression Visibility Wind Speed Wind Dir Waves Ship Positions

Cosco Tengfei

Last reported at 2016-Jun-30 20:32 UTC. Time now 2016-Jun-30 21:22 UTC.
Position N 45°39' W 122°45'.

Length 183 m; draft 8.5 m.

Type: Cargo ship. MMSI: 355518000.

Date/timePositionNaut miles runAvg speedWind from/ knotsBaromVisibWave heightAir tempDewpointWater temp
2016-Jun-30 20:32N 45°39' W 122°45'0 0.0
2016-Jun-30 19:29N 45°39' W 122°45'0 0.0
2016-Jun-30 18:32N 45°39' W 122°45'0 0.0
2016-Jun-30 17:32N 45°39' W 122°45'0 0.0
2016-Jun-30 16:32N 45°39' W 122°45'0 0.0
2016-Jun-30 15:29N 45°39' W 122°45'0 0.0
2016-Jun-30 14:32N 45°39' W 122°45'0 0.0
2016-Jun-30 13:32N 45°39' W 122°45'0 0.0
2016-Jun-30 12:29N 45°39' W 122°45'0 0.0
2016-Jun-30 11:29N 45°39' W 122°45'0 0.0
2016-Jun-30 10:32N 45°39' W 122°45'0 0.0
2016-Jun-30 09:32N 45°39' W 122°45'0 0.0
2016-Jun-30 08:32N 45°39' W 122°45'0 0.0
2016-Jun-30 07:29N 45°39' W 122°45'7 7.2
2016-Jun-30 06:34N 45°45' W 122°46'1514.6
2016-Jun-30 05:34N 45°60' W 122°51'1312.6
2016-Jun-30 04:34N 46°09' W 123°03'1414.4
2016-Jun-30 03:34N 46°09' W 123°24'1312.7
2016-Jun-30 02:33N 46°15' W 123°40'1312.8
2016-Jun-30 01:33N 46°13' W 123°58'1716.7
2016-Jun-30 00:34N 46°13' W 124°22'1919.0
2016-Jun-29 23:34N 46°27' W 124°41'1919.1
2016-Jun-29 22:34N 46°45' W 124°51'1919.3
2016-Jun-29 21:33N 47°03' W 125°00'1919.2
2016-Jun-29 20:34N 47°21' W 125°09'1919.1
2016-Jun-29 19:33N 47°39' W 125°19'1919.1
2016-Jun-29 18:33N 47°57' W 125°29'1817.8
2016-Jun-29 17:33N 48°14' W 125°17'1818.2
2016-Jun-29 16:33N 48°29' W 125°02'1717.3
2016-Jun-29 15:33N 48°29' W 124°37'1918.7
2016-Jun-29 14:34N 48°22' W 124°11'1919.4
2016-Jun-29 13:33N 48°16' W 123°42'1515.6
2016-Jun-29 12:33N 48°23' W 123°22'1312.8
2016-Jun-29 11:34N 48°35' W 123°13'1716.5
2016-Jun-29 10:33N 48°49' W 123°01'1919.1
2016-Jun-29 09:33N 49°02' W 123°22'9 9.1
2016-Jun-29 08:34N 49°07' W 123°09'4 3.5
2016-Jun-29 07:32N 49°08' W 123°04'0 0.0
2016-Jun-29 06:32N 49°08' W 123°04'0 0.0
2016-Jun-29 05:32N 49°08' W 123°04'0 0.0
2016-Jun-29 04:32N 49°08' W 123°04'0 0.0
2016-Jun-29 03:32N 49°08' W 123°04'0 0.0
2016-Jun-29 02:32N 49°08' W 123°04'0 0.0
2016-Jun-29 01:32N 49°08' W 123°04'0 0.0
2016-Jun-29 00:32N 49°08' W 123°04'0 0.0
2016-Jun-28 23:32N 49°08' W 123°04'0 0.0
2016-Jun-28 22:32N 49°08' W 123°04'0 0.0
2016-Jun-28 21:32N 49°08' W 123°04'0 0.0
2016-Jun-28 20:32N 49°08' W 123°04'0 0.0
2016-Jun-28 19:32N 49°08' W 123°04'4 3.8
2016-Jun-28 18:34N 49°09' W 122°59'3 3.0
2016-Jun-28 17:33N 49°11' W 122°55'0 0.0
2016-Jun-28 16:33N 49°11' W 122°55'0 0.0
2016-Jun-28 15:33N 49°11' W 122°55'0 0.0
2016-Jun-28 14:33N 49°11' W 122°55'0 0.0
2016-Jun-28 13:33N 49°11' W 122°55'0 0.0
2016-Jun-28 12:33N 49°11' W 122°55'0 0.0
2016-Jun-28 11:33N 49°11' W 122°55'0 0.0
2016-Jun-28 10:33N 49°11' W 122°55'0 0.0
2016-Jun-28 09:33N 49°11' W 122°55'0 0.0
2016-Jun-28 08:33N 49°11' W 122°55'4 3.5
2016-Jun-28 07:33N 49°09' W 123°00'1111.4
2016-Jun-28 06:33N 49°07' W 123°17'2311.5
2016-Jun-28 04:34N 48°46' W 123°03'1514.9
2016-Jun-28 03:34N 48°32' W 123°12'1414.0
2016-Jun-28 02:33N 48°21' W 123°24'9 8.9
2016-Jun-28 01:31N 48°13' W 123°32'1414.3
2016-Jun-28 00:32N 48°14' W 123°54'1515.2
2016-Jun-27 23:33N 48°19' W 124°14'1514.7
2016-Jun-27 22:33N 48°26' W 124°34'1414.0
2016-Jun-27 21:33N 48°29' W 124°55'1515.0
2016-Jun-27 20:33N 48°28' W 125°17'1515.2
2016-Jun-27 19:33N 48°29' W 125°40'1615.6
2016-Jun-27 18:33N 48°28' W 126°04'1515.4
2016-Jun-27 17:33N 48°27' W 126°27'10 9.7
2016-Jun-27 16:33N 48°28' W 126°42'2 2.2
2016-Jun-27 15:32N 48°28' W 126°45'1210.5
2016-Jun-27 14:23N 48°28' W 127°03'1214.8
2016-Jun-27 13:33N 48°29' W 127°21'3014.9
2016-Jun-27 11:31N 48°28' W 128°07'3115.5
2016-Jun-27 09:33N 48°29' W 128°53'1515.3
2016-Jun-27 08:33N 48°29' W 129°16'2215.0
2016-Jun-27 07:05N 48°29' W 129°49'  

Dump ship's entire track history